1998 FIONA (1998073S11065)


On this page: IBTrACS data - Map and Plots - Positions - Intensities - Original source data

Summary

Start Mar 13
End Mar 21
Basin SI
LMI 40 kt
Sources jtwc_sh
reunion
neumann
In WMO? Yes
Previous storm 1998 DONALINE (SI)
Previous in basin 1998 DONALINE (SI)
Concurrent storms 1998 ELSIE (SI)
1998 FIONA (SI)
1998 YALI (SP)
1998 NATHAN (SP)
Next in basin Missing
Next storm 1998 YALI (SP)

top of page IBTrACS Data: File Access

top of page HURSAT Data: File Access

Image of storm

top of page Plots:

Map of storm track will not appear if FTP is down
Time series of cyclone Maximum Sustained Wind will not appear if FTP is down
Time series of cyclone Minimum Central Pressure will not appear if FTP is down

top of page Track Data:Position

jtwc_sh reunion neumann
Date Lat Lon Lat Lon Lat Lon
1998-03-13 12:00:00 -11.0 65.2
1998-03-13 18:00:00 -11.8 65.3
1998-03-14 00:00:00 -12.3 65.5
1998-03-14 06:00:00 -12.8 65.5
1998-03-14 12:00:00 -13.2 65.3
1998-03-14 18:00:00 -13.4 65.0
1998-03-15 00:00:00 -13.7 64.6
1998-03-15 06:00:00 -14.1 64.1 -13.2 63.3 -13.2 63.3
1998-03-15 12:00:00 -14.4 63.6 -13.8 63.7 -13.8 63.7
1998-03-15 18:00:00 -14.9 63.0 -14.3 63.6 -14.3 63.6
1998-03-16 00:00:00 -15.3 62.4 -15.1 63.5 -15.1 63.5
1998-03-16 06:00:00 -15.8 61.9 -15.9 62.9 -15.9 62.9
1998-03-16 12:00:00 -16.3 61.6 -16.6 62.4 -16.6 62.4
1998-03-16 18:00:00 -16.8 61.4 -16.8 62.1 -16.8 62.1
1998-03-17 00:00:00 -17.3 61.4 -16.9 61.8 -16.9 61.8
1998-03-17 06:00:00 -17.7 61.4 -17.3 61.3 -17.3 61.3
1998-03-17 12:00:00 -18.2 61.2 -17.8 60.9 -17.8 60.9
1998-03-17 18:00:00 -18.7 61.0 -18.2 60.6 -18.2 60.6
1998-03-18 00:00:00 -18.9 60.9 -18.7 60.3 -18.7 60.3
1998-03-18 06:00:00 -19.1 60.7 -19.0 60.0 -19.0 60.0
1998-03-18 12:00:00 -19.3 60.5 -19.3 59.7 -19.3 59.7
1998-03-18 18:00:00 -19.5 60.2 -19.6 59.2 -19.6 59.2
1998-03-19 00:00:00 -19.6 59.9 -19.7 58.9 -19.7 58.9
1998-03-19 06:00:00 -19.8 59.4 -19.9 58.7 -19.9 58.7
1998-03-19 12:00:00 -20.2 58.8 -20.2 58.6 -20.2 58.6
jtwc_sh reunion neumann
1998-03-19 18:00:00 -20.8 58.6 -20.8 58.5 -20.8 58.5
1998-03-20 00:00:00 -21.5 58.6 -21.5 58.2 -21.5 58.2
1998-03-20 06:00:00 -22.2 58.7 -22.3 58.3 -22.3 58.3
1998-03-20 12:00:00 -22.8 58.8 -23.1 58.6 -23.1 58.6
1998-03-20 18:00:00 -23.6 58.9 -24.0 59.3 -24.0 59.3
1998-03-21 00:00:00 -24.8 59.9 -24.8 59.9
1998-03-21 06:00:00 -24.9 60.8 -24.9 60.8

top of pageTrack Data:Intensity

jtwc_sh reunion neumann
Date Wind Pres Wind Pres Wind Pres
1998-03-13 12:00:00 15.
1998-03-13 18:00:00 15.
1998-03-14 00:00:00 15.
1998-03-14 06:00:00 15.
1998-03-14 12:00:00 15.
1998-03-14 18:00:00 20.
1998-03-15 00:00:00 25.
1998-03-15 06:00:00 25. 20. 1006. 15. 1006.
1998-03-15 12:00:00 25. 20. 1004. 20. 1004.
1998-03-15 18:00:00 25. 20. 1002. 25. 1002.
1998-03-16 00:00:00 25. 25. 1000. 30. 1000.
1998-03-16 06:00:00 25. 25. 1000. 30. 1000.
1998-03-16 12:00:00 25. 25. 1000. 30. 1000.
1998-03-16 18:00:00 30. 25. 998. 35. 998.
1998-03-17 00:00:00 35. 30. 995. 40. 995.
1998-03-17 06:00:00 35. 30. 995. 40. 995.
1998-03-17 12:00:00 35. 30. 995. 40. 995.
1998-03-17 18:00:00 35. 28. 997. 35. 997.
1998-03-18 00:00:00 35. 28. 997. 35. 997.
1998-03-18 06:00:00 35. 28. 997. 35. 997.
1998-03-18 12:00:00 35. 30. 995. 40. 995.
1998-03-18 18:00:00 35. 30. 995. 40. 995.
1998-03-19 00:00:00 35. 30. 995. 40. 995.
1998-03-19 06:00:00 35. 28. 997. 35. 997.
1998-03-19 12:00:00 30. 25. 1000. 30. 1000.
jtwc_sh reunion neumann
1998-03-19 18:00:00 30. 25. 1000. 30. 1000.
1998-03-20 00:00:00 30. 25. 1002. 25. 1002.
1998-03-20 06:00:00 30. 20. 1004. 20. 1004.
1998-03-20 12:00:00 25. 20. 1004. 20. 1004.
1998-03-20 18:00:00 25. 20. 1005. 20. 1005.
1998-03-21 00:00:00 20. 1007. 15. 1007.
1998-03-21 06:00:00 1010. 25. 1010.

top of page Links to source data

Source Source file Format
jtwc_sh bsh281998.txt ATCF
reunion WMO-Best-Tracks.txt:Line=18319:fiona WMO (old format)
neumann tracks.sh:Storm=1130:FIONA:BSH281998:Reunion HURDAT